createdAt,value
2019-01-20T00:00:02.470Z,62.50
2019-01-20T00:02:32.788Z,57.57
2019-01-20T00:05:02.710Z,54.43
2019-01-20T00:07:32.722Z,63.57
2019-01-20T00:10:02.431Z,57.97
2019-01-20T00:12:32.453Z,58.87
2019-01-20T00:15:02.874Z,57.43
2019-01-20T00:17:32.794Z,59.37
2019-01-20T00:20:02.702Z,60.23
2019-01-20T00:22:32.723Z,56.90
2019-01-20T00:25:02.964Z,56.73
2019-01-20T00:27:32.962Z,60.43
2019-01-20T00:30:03.081Z,57.03
2019-01-20T00:32:32.893Z,62.63
2019-01-20T00:35:03.015Z,62.37
2019-01-20T00:37:33.023Z,56.03
2019-01-20T00:40:02.942Z,59.07
2019-01-20T00:42:33.061Z,62.13
2019-01-20T00:45:03.328Z,70.90
2019-01-20T00:47:32.996Z,78.57
2019-01-20T00:50:03.002Z,69.23
2019-01-20T00:52:32.913Z,67.73
2019-01-20T00:55:02.834Z,74.23
2019-01-20T00:57:33.054Z,65.80
2019-01-20T01:00:03.469Z,70.20
2019-01-20T01:02:33.302Z,72.10
2019-01-20T01:05:03.102Z,69.90
2019-01-20T01:07:33.636Z,73.43
2019-01-20T01:10:03.865Z,74.47
2019-01-20T01:12:36.107Z,72.10
2019-01-20T01:15:06.774Z,75.50
2019-01-20T01:17:37.813Z,75.17
2019-01-20T01:20:10.466Z,74.57
2019-01-20T01:22:40.692Z,69.80
2019-01-20T01:25:11.837Z,70.57
2019-01-20T01:27:41.848Z,72.03
2019-01-20T01:30:13.820Z,72.97
2019-01-20T01:32:44.045Z,70.33
2019-01-20T01:35:14.482Z,69.87
2019-01-20T01:37:44.795Z,68.57
2019-01-20T01:40:15.010Z,74.07
2019-01-20T01:42:45.343Z,70.60
2019-01-20T01:45:16.575Z,75.17
2019-01-20T01:47:46.476Z,85.73
2019-01-20T01:50:17.232Z,88.10
2019-01-20T01:52:47.330Z,79.70
2019-01-20T01:55:17.251Z,76.37
2019-01-20T01:57:47.461Z,80.17
2019-01-20T02:00:21.797Z,78.77
2019-01-20T02:02:51.922Z,82.77
2019-01-20T02:05:21.816Z,80.80
2019-01-20T02:07:52.281Z,75.70
2019-01-20T02:10:23.285Z,85.33
2019-01-20T02:12:53.397Z,74.43
2019-01-20T02:15:23.835Z,78.23
2019-01-20T02:17:57.091Z,76.97
2019-01-20T02:20:27.361Z,74.00
2019-01-20T02:22:57.674Z,76.17
2019-01-20T02:25:27.803Z,75.07
2019-01-20T02:27:58.789Z,75.47
2019-01-20T02:30:29.668Z,72.93
2019-01-20T02:32:59.796Z,72.73
2019-01-20T02:35:30.023Z,79.10
2019-01-20T02:38:00.434Z,77.67
2019-01-20T02:40:30.754Z,80.40
2019-01-20T02:43:00.464Z,76.23
2019-01-20T02:45:30.381Z,77.80
2019-01-20T02:48:00.412Z,79.47
2019-01-20T02:50:30.516Z,78.00
2019-01-20T02:53:00.642Z,82.40
2019-01-20T02:55:30.868Z,74.80
2019-01-20T02:58:04.869Z,79.63
2019-01-20T03:00:35.294Z,74.53
2019-01-20T03:03:05.836Z,76.07
2019-01-20T03:05:40.084Z,82.37
2019-01-20T03:08:10.452Z,78.90
2019-01-20T03:10:40.793Z,88.40
2019-01-20T03:13:10.694Z,80.03
2019-01-20T03:15:41.435Z,80.37
2019-01-20T03:18:11.743Z,86.70
2019-01-20T03:20:42.271Z,84.77
2019-01-20T03:23:12.924Z,85.17
2019-01-20T03:25:42.826Z,82.63
2019-01-20T03:28:12.954Z,82.03
2019-01-20T03:30:44.110Z,80.53
2019-01-20T03:33:14.096Z,80.07
2019-01-20T03:35:44.026Z,82.63
2019-01-20T03:38:14.433Z,79.47
2019-01-20T03:40:45.084Z,73.47
2019-01-20T03:43:15.700Z,79.83
2019-01-20T03:45:45.507Z,81.03
2019-01-20T03:48:15.421Z,76.07
2019-01-20T03:50:45.756Z,79.27
2019-01-20T03:53:15.556Z,82.43
2019-01-20T03:55:45.570Z,77.97
2019-01-20T03:58:15.805Z,78.83
2019-01-20T04:00:46.032Z,72.40
2019-01-20T04:03:16.686Z,81.70
2019-01-20T04:05:47.792Z,81.63
2019-01-20T04:08:19.886Z,87.60
2019-01-20T04:10:49.995Z,83.77
2019-01-20T04:13:20.312Z,79.60
2019-01-20T04:15:50.414Z,76.93
2019-01-20T04:18:20.745Z,77.80
2019-01-20T04:20:50.443Z,77.10
2019-01-20T04:23:20.472Z,80.40
2019-01-20T04:25:51.015Z,78.43
2019-01-20T04:28:21.025Z,75.13
2019-01-20T04:30:51.331Z,77.13
2019-01-20T04:33:21.572Z,79.30
2019-01-20T04:35:52.100Z,82.83
2019-01-20T04:38:22.315Z,85.47
2019-01-20T04:40:52.226Z,82.93
2019-01-20T04:43:22.342Z,79.10
2019-01-20T04:45:52.362Z,75.83
2019-01-20T04:48:22.485Z,88.17
2019-01-20T04:50:52.691Z,90.83
2019-01-20T04:53:22.506Z,96.57
2019-01-20T04:55:52.720Z,90.30
2019-01-20T04:58:24.056Z,86.23
2019-01-20T05:00:54.109Z,81.83
2019-01-20T05:03:42.888Z,79.57
2019-01-20T05:06:13.297Z,76.70
2019-01-20T05:08:43.301Z,78.50
2019-01-20T05:11:13.309Z,80.20
2019-01-20T05:13:43.645Z,79.87
2019-01-20T05:16:13.645Z,83.23
2019-01-20T05:18:45.827Z,81.83
2019-01-20T05:21:17.885Z,84.30
2019-01-20T05:23:47.796Z,83.27
2019-01-20T05:26:17.722Z,80.40
2019-01-20T05:28:47.725Z,74.83
2019-01-20T05:31:18.082Z,76.17
2019-01-20T05:33:48.785Z,82.43
2019-01-20T05:36:18.814Z,84.73
2019-01-20T05:38:49.097Z,85.40
2019-01-20T05:41:19.232Z,84.77
2019-01-20T05:43:49.245Z,85.70
2019-01-20T05:46:19.795Z,97.43
2019-01-20T05:48:49.817Z,101.03
2019-01-20T05:51:19.498Z,110.23
2019-01-20T05:53:49.726Z,98.43
2019-01-20T05:56:20.374Z,88.53
2019-01-20T05:58:50.469Z,89.60
2019-01-20T06:01:20.589Z,95.47
2019-01-20T06:03:50.709Z,96.87
2019-01-20T06:06:20.627Z,91.50
2019-01-20T06:08:50.637Z,106.90
2019-01-20T06:11:20.759Z,98.87
2019-01-20T06:13:50.669Z,103.87
2019-01-20T06:16:20.493Z,106.63
2019-01-20T06:18:50.906Z,107.43
2019-01-20T06:21:20.947Z,120.13
2019-01-20T06:23:51.082Z,121.97
2019-01-20T06:26:21.277Z,116.83
2019-01-20T06:28:51.386Z,115.53
2019-01-20T06:31:21.425Z,115.97
2019-01-20T06:33:51.417Z,105.80
2019-01-20T06:36:21.765Z,109.17
2019-01-20T06:38:52.385Z,123.30
2019-01-20T06:41:22.082Z,117.90
2019-01-20T06:43:53.444Z,104.17
2019-01-20T06:46:23.647Z,95.17
2019-01-20T06:48:55.097Z,90.27
2019-01-20T06:51:25.010Z,88.33
2019-01-20T06:53:56.465Z,91.97
2019-01-20T06:56:26.069Z,93.30
2019-01-20T06:58:57.518Z,102.63
2019-01-20T07:01:27.856Z,150.23
2019-01-20T07:03:58.070Z,178.17
2019-01-20T07:06:29.315Z,163.60
2019-01-20T07:09:00.457Z,143.70
2019-01-20T07:11:31.499Z,136.60
2019-01-20T07:14:01.825Z,129.50
2019-01-20T07:16:31.733Z,128.27
2019-01-20T07:19:01.239Z,109.57
2019-01-20T07:21:31.251Z,117.07
2019-01-20T07:24:01.384Z,161.80
2019-01-20T07:26:31.486Z,165.73
2019-01-20T07:29:01.225Z,153.53
2019-01-20T07:31:31.418Z,185.03
2019-01-20T07:34:01.873Z,162.13
2019-01-20T07:36:32.384Z,146.57
2019-01-20T07:39:02.404Z,127.73
2019-01-20T07:41:32.005Z,132.10
2019-01-20T07:44:02.114Z,153.27
2019-01-20T07:46:32.444Z,166.20
2019-01-20T07:49:02.458Z,161.10
2019-01-20T07:51:32.484Z,176.23
2019-01-20T07:54:03.225Z,260.60
2019-01-20T07:56:33.243Z,250.83
2019-01-20T07:59:03.240Z,193.47
2019-01-20T08:01:33.669Z,166.77
2019-01-20T08:04:03.802Z,141.03
2019-01-20T08:06:34.086Z,198.03
2019-01-20T08:09:04.760Z,185.30
2019-01-20T08:11:34.776Z,180.10
2019-01-20T08:14:05.517Z,155.00
2019-01-20T08:16:36.106Z,109.90
2019-01-20T08:19:07.980Z,106.23
2019-01-20T08:21:38.936Z,108.70
2019-01-20T08:24:09.814Z,106.70
2019-01-20T08:26:40.304Z,104.30
2019-01-20T08:29:12.402Z,97.83
2019-01-20T08:31:43.308Z,97.60
2019-01-20T08:34:14.084Z,99.37
2019-01-20T08:36:44.775Z,100.57
2019-01-20T08:39:15.298Z,99.97
2019-01-20T08:41:46.099Z,102.43
2019-01-20T08:44:17.081Z,102.83
2019-01-20T08:47:05.922Z,100.27
2019-01-20T08:49:36.255Z,96.60
2019-01-20T08:52:07.171Z,102.63
2019-01-20T08:54:37.394Z,109.00
2019-01-20T08:57:07.623Z,107.73
2019-01-20T08:59:38.272Z,105.93
2019-01-20T09:02:09.828Z,110.40
2019-01-20T09:04:41.458Z,105.63
2019-01-20T09:07:12.497Z,104.80
2019-01-20T09:09:43.942Z,106.53
2019-01-20T09:12:14.473Z,106.50
2019-01-20T09:14:45.104Z,106.10
2019-01-20T09:17:15.938Z,106.83
2019-01-20T09:19:46.482Z,105.80
2019-01-20T09:22:16.802Z,110.27
2019-01-20T09:24:46.823Z,106.43
2019-01-20T09:27:16.818Z,107.17
2019-01-20T09:29:46.853Z,107.80
2019-01-20T09:32:16.956Z,107.23
2019-01-20T09:34:47.092Z,106.87
2019-01-20T09:37:17.312Z,110.57
2019-01-20T09:39:47.952Z,106.40
2019-01-20T09:42:18.461Z,109.00
2019-01-20T09:44:48.677Z,107.23
2019-01-20T09:47:20.858Z,106.70
2019-01-20T09:49:50.656Z,109.13
2019-01-20T09:52:20.677Z,118.70
2019-01-20T09:54:52.084Z,117.23
2019-01-20T09:57:21.833Z,122.83
2019-01-20T09:59:51.874Z,118.50
2019-01-20T10:02:21.787Z,121.57
2019-01-20T10:04:51.902Z,111.73
2019-01-20T10:07:23.544Z,115.53
2019-01-20T10:09:53.782Z,120.90
2019-01-20T10:12:25.535Z,118.80
2019-01-20T10:14:55.848Z,116.63
2019-01-20T10:17:29.084Z,118.83
2019-01-20T10:20:05.007Z,120.93
2019-01-20T10:22:36.448Z,121.37
2019-01-20T10:25:15.063Z,122.07
2019-01-20T10:27:42.314Z,122.33
2019-01-20T10:30:15.406Z,115.80
2019-01-20T10:32:47.999Z,119.17
2019-01-20T10:35:19.419Z,116.57
2019-01-20T10:37:50.083Z,120.17
2019-01-20T10:40:20.903Z,121.87
2019-01-20T10:42:51.430Z,119.77
2019-01-20T10:45:21.753Z,113.07
2019-01-20T10:47:51.484Z,113.87
2019-01-20T10:50:21.885Z,115.53
2019-01-20T10:52:53.647Z,115.60
2019-01-20T10:55:25.204Z,115.53
2019-01-20T10:57:56.428Z,111.23
2019-01-20T11:00:27.694Z,108.73
2019-01-20T11:02:57.795Z,118.63
2019-01-20T11:05:30.495Z,102.13
2019-01-20T11:08:01.085Z,97.77
2019-01-20T11:10:34.195Z,96.33
2019-01-20T11:13:04.206Z,142.47
2019-01-20T11:15:35.883Z,103.60
2019-01-20T11:18:05.985Z,106.00
2019-01-20T11:20:40.078Z,107.87
2019-01-20T11:23:10.720Z,111.97
2019-01-20T11:25:42.498Z,105.40
2019-01-20T11:28:13.090Z,98.63
2019-01-20T11:30:43.439Z,96.03
2019-01-20T11:33:15.705Z,100.37
2019-01-20T11:35:49.726Z,105.27
2019-01-20T11:38:19.833Z,107.27
2019-01-20T11:40:51.804Z,105.90
2019-01-20T11:43:24.478Z,113.43
2019-01-20T11:46:03.931Z,128.47
2019-01-20T11:48:35.674Z,138.07
2019-01-20T11:51:07.520Z,138.30
2019-01-20T11:53:39.393Z,151.33
2019-01-20T11:56:09.516Z,156.20
2019-01-20T11:58:40.772Z,154.80
2019-01-20T12:01:14.456Z,161.20
2019-01-20T12:03:47.362Z,147.80
2019-01-20T12:06:17.674Z,151.67
2019-01-20T12:08:48.096Z,148.00
2019-01-20T12:11:20.573Z,145.73
2019-01-20T12:13:57.477Z,142.70
2019-01-20T12:16:30.535Z,136.10
2019-01-20T12:19:03.006Z,143.37
2019-01-20T12:21:33.099Z,137.17
2019-01-20T12:24:03.037Z,140.60
2019-01-20T12:26:33.780Z,142.63
2019-01-20T12:29:04.097Z,134.43
2019-01-20T12:31:34.627Z,126.10
2019-01-20T12:34:05.252Z,130.23
2019-01-20T12:36:37.935Z,130.43
2019-01-20T12:39:09.483Z,131.00
2019-01-20T12:41:39.809Z,125.43
2019-01-20T12:44:09.824Z,116.87
2019-01-20T12:46:40.093Z,111.07
2019-01-20T12:49:19.794Z,104.50
2019-01-20T12:51:53.394Z,77.60
2019-01-20T12:54:23.611Z,73.33
2019-01-20T12:56:56.905Z,66.30
2019-01-20T12:59:26.817Z,64.70
2019-01-20T13:01:57.351Z,67.17
2019-01-20T13:04:27.678Z,77.87
2019-01-20T13:12:17.793Z,88.23
2019-01-20T13:14:49.343Z,78.90
2019-01-20T13:17:19.667Z,77.77
2019-01-20T13:19:49.796Z,75.80
2019-01-20T13:22:20.015Z,72.87
2019-01-20T13:24:51.895Z,69.77
2019-01-20T13:27:23.096Z,68.67
2019-01-20T13:29:54.795Z,69.80
2019-01-20T13:32:26.754Z,73.73
2019-01-20T13:34:58.801Z,74.40
2019-01-20T13:37:29.855Z,69.60
2019-01-20T13:40:00.876Z,62.83
2019-01-20T13:42:31.815Z,67.00
2019-01-20T13:45:02.247Z,68.10
2019-01-20T13:47:32.664Z,73.10
2019-01-20T13:50:03.515Z,71.90
2019-01-20T13:52:34.442Z,66.10
2019-01-20T13:55:05.794Z,72.53
2019-01-20T13:57:36.835Z,71.57
2019-01-20T14:00:09.945Z,77.50
2019-01-20T14:02:43.084Z,80.30
2019-01-20T14:05:21.324Z,83.30
2019-01-20T14:07:58.208Z,84.90
2019-01-20T14:19:26.428Z,92.07
2019-01-20T14:21:58.488Z,93.50
2019-01-20T14:24:32.295Z,103.03
2019-01-20T14:27:03.540Z,106.63
2019-01-20T14:29:33.678Z,109.33
2019-01-20T14:32:04.186Z,110.63
2019-01-20T14:34:36.055Z,103.20
2019-01-20T14:40:31.795Z,100.37
2019-01-20T14:43:02.735Z,93.90
2019-01-20T14:45:32.843Z,93.00
2019-01-20T14:48:02.875Z,87.40
2019-01-20T14:50:33.494Z,83.27
2019-01-20T14:53:03.734Z,85.97
2019-01-20T14:55:36.025Z,90.90
2019-01-20T14:58:08.676Z,91.90
2019-01-20T15:00:40.837Z,89.10
2019-01-20T15:03:11.675Z,88.70
2019-01-20T15:05:44.775Z,87.20
2019-01-20T15:08:15.397Z,86.97
2019-01-20T15:10:45.616Z,87.13
2019-01-20T15:13:15.934Z,82.93
2019-01-20T15:15:50.968Z,84.10
2019-01-20T15:18:21.816Z,85.03
2019-01-20T15:20:58.895Z,85.33
2019-01-20T15:23:30.858Z,84.53
2019-01-20T15:26:02.714Z,84.67
2019-01-20T15:28:34.474Z,93.63
2019-01-20T15:31:04.675Z,90.57
2019-01-20T15:33:37.466Z,96.77
2019-01-20T15:36:34.843Z,91.73
2019-01-20T15:39:11.490Z,95.73
2019-01-20T15:41:48.874Z,102.93
2019-01-20T15:44:36.480Z,97.77
2019-01-20T15:47:12.575Z,98.53
2019-01-20T15:49:52.535Z,97.37
2019-01-20T15:52:37.996Z,103.13
2019-01-20T16:18:44.005Z,117.03
2019-01-20T16:21:34.916Z,117.27
2019-01-20T16:24:12.396Z,122.17
2019-01-20T16:39:35.446Z,154.13
2019-01-20T16:42:06.785Z,166.37
2019-01-20T16:44:42.433Z,192.87
2019-01-20T16:47:15.728Z,200.07
2019-01-20T16:49:46.566Z,221.73
2019-01-20T16:52:28.557Z,212.50
2019-01-20T16:55:13.216Z,196.00
2019-01-20T16:57:44.981Z,165.27
2019-01-20T17:00:20.097Z,164.40
2019-01-20T17:02:51.966Z,162.77
2019-01-20T17:05:26.859Z,147.40
2019-01-20T17:07:57.027Z,143.37
2019-01-20T17:10:31.352Z,134.30
2019-01-20T17:13:04.233Z,132.43
2019-01-20T17:15:39.902Z,120.87
2019-01-20T17:18:15.014Z,118.20
2019-01-20T17:20:45.950Z,115.33
2019-01-20T17:23:19.030Z,121.20
2019-01-20T17:25:50.386Z,122.40
2019-01-20T17:28:22.638Z,126.13
2019-01-20T17:30:52.666Z,100.20
2019-01-20T17:33:29.444Z,98.60
2019-01-20T17:36:02.434Z,101.87
2019-01-20T17:38:33.477Z,100.87
2019-01-20T17:41:11.377Z,88.73
2019-01-20T17:43:41.488Z,93.70
2019-01-20T17:46:11.406Z,93.73
2019-01-20T17:48:43.366Z,92.20
2019-01-20T17:51:15.425Z,87.67
2019-01-20T17:53:46.367Z,87.00
2019-01-20T17:56:17.422Z,78.03
2019-01-20T17:58:48.039Z,82.87
2019-01-20T18:01:29.416Z,75.97
2019-01-20T18:04:40.200Z,85.83
2019-01-20T18:07:12.468Z,86.50
2019-01-20T18:09:42.804Z,95.33
2019-01-20T18:12:14.238Z,92.37
2019-01-20T18:14:52.446Z,88.27
2019-01-20T18:17:30.749Z,113.90
2019-01-20T18:20:03.755Z,107.57
2019-01-20T18:22:47.685Z,116.07
2019-01-20T18:25:20.134Z,109.47
2019-01-20T18:28:03.585Z,106.30
2019-01-20T18:30:38.726Z,99.37
2019-01-20T18:33:09.867Z,103.80
2019-01-20T18:35:45.008Z,100.23
2019-01-20T18:38:26.504Z,99.47
2019-01-20T18:40:57.526Z,93.53
2019-01-20T18:43:31.456Z,99.10
2019-01-20T18:46:07.908Z,102.20
2019-01-20T18:48:38.436Z,95.33
2019-01-20T18:51:10.763Z,93.60
2019-01-20T18:53:54.337Z,108.77
2019-01-20T18:56:28.756Z,98.60
2019-01-20T18:59:03.597Z,103.23
2019-01-20T19:01:42.855Z,101.27
2019-01-20T19:04:18.566Z,99.30
2019-01-20T19:06:53.042Z,109.37
2019-01-20T19:09:45.534Z,120.97
2019-01-20T19:12:22.116Z,134.00
2019-01-20T19:14:58.998Z,115.77
2019-01-20T19:17:30.736Z,119.47
2019-01-20T19:20:03.335Z,115.63
2019-01-20T19:22:36.416Z,106.20
2019-01-20T19:25:12.106Z,110.17
2019-01-20T19:27:48.925Z,112.37
2019-01-20T19:30:26.023Z,114.10
2019-01-20T19:33:05.086Z,108.33
2019-01-20T19:38:44.404Z,112.40
2019-01-20T19:44:13.086Z,114.50
2019-01-20T19:46:45.886Z,118.07
2019-01-20T19:49:21.090Z,125.17
2019-01-20T19:52:03.122Z,115.70
2019-01-20T19:54:38.103Z,115.23
2019-01-20T19:57:17.298Z,124.63
2019-01-20T19:59:47.616Z,130.07
2019-01-20T20:02:17.926Z,130.10
2019-01-20T20:04:49.295Z,129.47
2019-01-20T20:07:22.675Z,132.73
2019-01-20T20:10:14.292Z,127.40
2019-01-20T20:12:46.146Z,124.73
2019-01-20T20:15:18.416Z,136.77
2019-01-20T20:17:48.746Z,137.13
2019-01-20T20:20:25.405Z,136.37
2019-01-20T20:22:55.745Z,154.40
2019-01-20T20:25:28.930Z,168.93
2019-01-20T20:27:59.363Z,145.83
2019-01-20T20:30:34.706Z,150.57
2019-01-20T20:33:12.616Z,144.73
2019-01-20T20:35:42.618Z,144.47
2019-01-20T20:38:17.545Z,147.10
2019-01-20T20:40:47.797Z,153.73
2019-01-20T20:43:18.299Z,136.10
2019-01-20T20:45:48.416Z,148.70
2019-01-20T20:48:21.085Z,139.83
2019-01-20T20:50:52.761Z,134.10
2019-01-20T20:53:23.816Z,138.90
2019-01-20T20:55:55.356Z,150.03
2019-01-20T20:58:28.950Z,151.43
2019-01-20T21:00:59.884Z,151.17
2019-01-20T21:03:32.096Z,171.63
2019-01-20T21:06:02.676Z,162.33
2019-01-20T21:08:36.457Z,142.73
2019-01-20T21:11:07.216Z,134.90
2019-01-20T21:13:38.996Z,133.57
2019-01-20T21:16:09.095Z,140.97
2019-01-20T21:18:43.920Z,152.67
2019-01-20T21:21:15.496Z,157.93
2019-01-20T21:23:52.558Z,166.70
2019-01-20T21:26:24.838Z,164.37
2019-01-20T21:29:01.704Z,135.10
2019-01-20T21:31:31.825Z,131.00
2019-01-20T21:34:03.257Z,131.43
2019-01-20T21:36:37.094Z,124.03
2019-01-20T21:39:13.338Z,138.33
2019-01-20T21:41:43.766Z,133.90
2019-01-20T21:44:14.804Z,128.23
2019-01-20T21:46:49.641Z,127.97
2019-01-20T21:49:23.856Z,130.20
2019-01-20T21:51:54.586Z,132.77
2019-01-20T21:54:43.750Z,130.97
2019-01-20T21:57:14.481Z,127.83
2019-01-20T21:59:45.009Z,132.13
2019-01-20T22:02:36.538Z,124.63
2019-01-20T22:05:28.137Z,131.47
2019-01-20T22:08:08.916Z,130.17
2019-01-20T22:10:39.041Z,129.43
2019-01-20T22:13:09.258Z,128.50
2019-01-20T22:15:39.684Z,120.03
2019-01-20T22:18:10.007Z,122.60
2019-01-20T22:20:40.332Z,124.87
2019-01-20T22:23:10.863Z,117.70
2019-01-20T22:25:41.295Z,124.40
2019-01-20T22:28:12.740Z,116.33
2019-01-20T22:30:43.469Z,121.33
2019-01-20T22:33:14.621Z,126.27
2019-01-20T22:35:45.663Z,124.17
2019-01-20T22:38:16.493Z,123.97
2019-01-20T22:40:47.669Z,118.37
2019-01-20T22:43:18.468Z,120.40
2019-01-20T22:45:48.788Z,125.50
2019-01-20T22:48:18.605Z,118.00
2019-01-20T22:50:48.633Z,109.13
2019-01-20T22:53:18.432Z,110.07
2019-01-20T22:55:48.348Z,112.57
2019-01-20T22:58:18.774Z,114.70
2019-01-20T23:00:53.712Z,110.67
2019-01-20T23:03:23.408Z,111.17
2019-01-20T23:05:53.948Z,106.17
2019-01-20T23:08:24.324Z,104.10
2019-01-20T23:10:54.488Z,107.87
2019-01-20T23:13:24.197Z,107.60
2019-01-20T23:15:54.834Z,97.57
2019-01-20T23:18:24.432Z,110.83
2019-01-20T23:20:54.659Z,104.50
2019-01-20T23:23:24.781Z,102.57
2019-01-20T23:25:54.478Z,99.23
2019-01-20T23:28:24.086Z,99.40
2019-01-20T23:30:53.899Z,100.20
2019-01-20T23:33:24.225Z,99.93
2019-01-20T23:35:54.101Z,95.20
2019-01-20T23:38:23.856Z,90.57
2019-01-20T23:40:53.762Z,97.40
2019-01-20T23:43:23.473Z,92.23
2019-01-20T23:45:53.280Z,92.43
2019-01-20T23:48:23.205Z,86.63
2019-01-20T23:50:53.106Z,91.90
2019-01-20T23:53:23.089Z,85.87
2019-01-20T23:55:53.037Z,79.60
2019-01-20T23:58:23.367Z,90.20
